sensor_id;sensor_type;location;lat;lon;timestamp;P1;durP1;ratioP1;P2;durP2;ratioP2
15385;SDS011;7791;47.246;9.648;2023-02-28T00:01:33;8.23;;;6.13;;
15385;SDS011;7791;47.246;9.648;2023-02-28T00:03:59;10.43;;;6.73;;
15385;SDS011;7791;47.246;9.648;2023-02-28T00:06:25;11.20;;;6.87;;
15385;SDS011;7791;47.246;9.648;2023-02-28T00:08:51;9.30;;;6.70;;
15385;SDS011;7791;47.246;9.648;2023-02-28T00:11:17;10.13;;;6.50;;
15385;SDS011;7791;47.246;9.648;2023-02-28T00:13:43;11.07;;;7.40;;
15385;SDS011;7791;47.246;9.648;2023-02-28T00:16:12;9.37;;;6.60;;
15385;SDS011;7791;47.246;9.648;2023-02-28T00:18:39;10.67;;;7.37;;
15385;SDS011;7791;47.246;9.648;2023-02-28T00:21:06;11.23;;;6.70;;
15385;SDS011;7791;47.246;9.648;2023-02-28T00:23:41;9.83;;;6.70;;
15385;SDS011;7791;47.246;9.648;2023-02-28T00:26:07;11.33;;;6.63;;
15385;SDS011;7791;47.246;9.648;2023-02-28T00:28:32;10.37;;;7.17;;
15385;SDS011;7791;47.246;9.648;2023-02-28T00:30:58;11.07;;;6.70;;
15385;SDS011;7791;47.246;9.648;2023-02-28T00:33:25;11.00;;;7.17;;
15385;SDS011;7791;47.246;9.648;2023-02-28T00:35:51;9.80;;;7.17;;
15385;SDS011;7791;47.246;9.648;2023-02-28T00:38:29;12.97;;;7.17;;
15385;SDS011;7791;47.246;9.648;2023-02-28T00:40:54;11.40;;;7.23;;
15385;SDS011;7791;47.246;9.648;2023-02-28T00:43:20;13.33;;;7.97;;
15385;SDS011;7791;47.246;9.648;2023-02-28T00:45:46;12.27;;;7.43;;
15385;SDS011;7791;47.246;9.648;2023-02-28T00:48:11;12.07;;;8.00;;
15385;SDS011;7791;47.246;9.648;2023-02-28T00:50:39;12.43;;;8.03;;
15385;SDS011;7791;47.246;9.648;2023-02-28T00:53:10;12.53;;;8.20;;
15385;SDS011;7791;47.246;9.648;2023-02-28T00:55:35;12.73;;;8.50;;
15385;SDS011;7791;47.246;9.648;2023-02-28T00:58:01;12.40;;;8.77;;
15385;SDS011;7791;47.246;9.648;2023-02-28T01:00:27;13.30;;;8.37;;
15385;SDS011;7791;47.246;9.648;2023-02-28T01:02:52;13.77;;;8.43;;
15385;SDS011;7791;47.246;9.648;2023-02-28T01:05:18;13.53;;;8.60;;
15385;SDS011;7791;47.246;9.648;2023-02-28T01:07:51;13.67;;;8.60;;
15385;SDS011;7791;47.246;9.648;2023-02-28T01:10:17;13.00;;;8.23;;
15385;SDS011;7791;47.246;9.648;2023-02-28T01:12:43;14.03;;;9.20;;
15385;SDS011;7791;47.246;9.648;2023-02-28T01:15:09;11.97;;;8.17;;
15385;SDS011;7791;47.246;9.648;2023-02-28T01:17:36;15.30;;;8.37;;
15385;SDS011;7791;47.246;9.648;2023-02-28T01:20:02;12.93;;;8.60;;
15385;SDS011;7791;47.246;9.648;2023-02-28T01:22:28;14.63;;;8.20;;
15385;SDS011;7791;47.246;9.648;2023-02-28T01:24:55;12.90;;;8.70;;
15385;SDS011;7791;47.246;9.648;2023-02-28T01:27:21;14.17;;;8.67;;
15385;SDS011;7791;47.246;9.648;2023-02-28T01:29:47;13.40;;;8.37;;
15385;SDS011;7791;47.246;9.648;2023-02-28T01:32:12;13.13;;;8.70;;
15385;SDS011;7791;47.246;9.648;2023-02-28T01:34:38;14.20;;;8.90;;
15385;SDS011;7791;47.246;9.648;2023-02-28T01:37:04;13.77;;;8.90;;
15385;SDS011;7791;47.246;9.648;2023-02-28T01:39:42;18.40;;;9.37;;
15385;SDS011;7791;47.246;9.648;2023-02-28T01:42:09;16.67;;;9.77;;
15385;SDS011;7791;47.246;9.648;2023-02-28T01:47:24;14.30;;;9.00;;
15385;SDS011;7791;47.246;9.648;2023-02-28T01:49:53;14.87;;;9.40;;
15385;SDS011;7791;47.246;9.648;2023-02-28T01:52:19;17.37;;;9.33;;
15385;SDS011;7791;47.246;9.648;2023-02-28T01:54:47;14.20;;;8.77;;
15385;SDS011;7791;47.246;9.648;2023-02-28T01:57:18;17.20;;;9.00;;
15385;SDS011;7791;47.246;9.648;2023-02-28T01:59:50;14.20;;;8.80;;
15385;SDS011;7791;47.246;9.648;2023-02-28T02:02:19;15.03;;;9.20;;
15385;SDS011;7791;47.246;9.648;2023-02-28T02:04:50;13.97;;;9.33;;
15385;SDS011;7791;47.246;9.648;2023-02-28T02:07:19;17.17;;;9.40;;
15385;SDS011;7791;47.246;9.648;2023-02-28T02:09:46;14.27;;;9.33;;
15385;SDS011;7791;47.246;9.648;2023-02-28T02:12:13;14.10;;;9.30;;
15385;SDS011;7791;47.246;9.648;2023-02-28T02:14:53;20.20;;;9.27;;
15385;SDS011;7791;47.246;9.648;2023-02-28T02:17:30;16.00;;;8.80;;
15385;SDS011;7791;47.246;9.648;2023-02-28T02:25:56;16.50;;;8.90;;
15385;SDS011;7791;47.246;9.648;2023-02-28T02:31:46;16.90;;;9.13;;
15385;SDS011;7791;47.246;9.648;2023-02-28T02:34:27;18.50;;;9.80;;
15385;SDS011;7791;47.246;9.648;2023-02-28T02:37:07;18.50;;;10.47;;
15385;SDS011;7791;47.246;9.648;2023-02-28T02:39:40;17.30;;;9.93;;
15385;SDS011;7791;47.246;9.648;2023-02-28T02:42:14;16.77;;;9.37;;
15385;SDS011;7791;47.246;9.648;2023-02-28T02:44:43;17.63;;;10.37;;
15385;SDS011;7791;47.246;9.648;2023-02-28T02:47:14;17.33;;;10.43;;
15385;SDS011;7791;47.246;9.648;2023-02-28T02:49:45;19.10;;;11.40;;
15385;SDS011;7791;47.246;9.648;2023-02-28T02:52:14;18.33;;;11.40;;
15385;SDS011;7791;47.246;9.648;2023-02-28T02:54:43;19.90;;;11.53;;
15385;SDS011;7791;47.246;9.648;2023-02-28T02:57:12;20.33;;;11.80;;
15385;SDS011;7791;47.246;9.648;2023-02-28T02:59:40;20.73;;;11.20;;
15385;SDS011;7791;47.246;9.648;2023-02-28T03:02:09;21.00;;;11.93;;
15385;SDS011;7791;47.246;9.648;2023-02-28T03:04:40;22.63;;;12.17;;
15385;SDS011;7791;47.246;9.648;2023-02-28T03:07:11;20.13;;;11.50;;
15385;SDS011;7791;47.246;9.648;2023-02-28T03:09:37;21.73;;;11.03;;
15385;SDS011;7791;47.246;9.648;2023-02-28T03:12:03;21.80;;;11.60;;
15385;SDS011;7791;47.246;9.648;2023-02-28T03:14:34;18.53;;;11.27;;
15385;SDS011;7791;47.246;9.648;2023-02-28T03:17:16;21.23;;;11.67;;
15385;SDS011;7791;47.246;9.648;2023-02-28T03:19:59;22.20;;;12.27;;
15385;SDS011;7791;47.246;9.648;2023-02-28T03:22:33;22.13;;;12.27;;
15385;SDS011;7791;47.246;9.648;2023-02-28T03:25:27;21.10;;;11.87;;
15385;SDS011;7791;47.246;9.648;2023-02-28T03:28:00;20.53;;;11.07;;
15385;SDS011;7791;47.246;9.648;2023-02-28T03:30:32;20.97;;;11.93;;
15385;SDS011;7791;47.246;9.648;2023-02-28T03:33:05;21.57;;;12.10;;
15385;SDS011;7791;47.246;9.648;2023-02-28T03:35:37;19.10;;;11.43;;
15385;SDS011;7791;47.246;9.648;2023-02-28T03:38:08;22.63;;;12.30;;
15385;SDS011;7791;47.246;9.648;2023-02-28T03:40:37;19.27;;;11.93;;
15385;SDS011;7791;47.246;9.648;2023-02-28T03:43:08;22.00;;;12.43;;
15385;SDS011;7791;47.246;9.648;2023-02-28T03:45:37;20.53;;;12.00;;
15385;SDS011;7791;47.246;9.648;2023-02-28T03:48:06;22.73;;;12.00;;
15385;SDS011;7791;47.246;9.648;2023-02-28T03:50:39;19.80;;;11.73;;
15385;SDS011;7791;47.246;9.648;2023-02-28T03:53:07;20.77;;;11.53;;
15385;SDS011;7791;47.246;9.648;2023-02-28T03:55:37;20.13;;;11.93;;
15385;SDS011;7791;47.246;9.648;2023-02-28T03:58:10;22.70;;;12.40;;
15385;SDS011;7791;47.246;9.648;2023-02-28T04:00:43;20.03;;;11.60;;
15385;SDS011;7791;47.246;9.648;2023-02-28T04:03:12;20.07;;;11.53;;
15385;SDS011;7791;47.246;9.648;2023-02-28T04:05:46;22.03;;;12.03;;
15385;SDS011;7791;47.246;9.648;2023-02-28T04:08:15;20.00;;;11.53;;
15385;SDS011;7791;47.246;9.648;2023-02-28T04:10:43;26.43;;;11.87;;
15385;SDS011;7791;47.246;9.648;2023-02-28T04:13:13;25.20;;;12.67;;
15385;SDS011;7791;47.246;9.648;2023-02-28T04:15:38;20.20;;;11.97;;
15385;SDS011;7791;47.246;9.648;2023-02-28T04:18:04;22.30;;;12.80;;
15385;SDS011;7791;47.246;9.648;2023-02-28T04:20:31;20.43;;;12.13;;
15385;SDS011;7791;47.246;9.648;2023-02-28T04:22:58;21.33;;;12.13;;
15385;SDS011;7791;47.246;9.648;2023-02-28T04:25:23;20.23;;;12.37;;
15385;SDS011;7791;47.246;9.648;2023-02-28T04:27:49;21.87;;;12.30;;
15385;SDS011;7791;47.246;9.648;2023-02-28T04:30:15;21.90;;;12.70;;
15385;SDS011;7791;47.246;9.648;2023-02-28T04:32:41;20.40;;;11.77;;
15385;SDS011;7791;47.246;9.648;2023-02-28T04:35:07;21.17;;;11.77;;
15385;SDS011;7791;47.246;9.648;2023-02-28T04:37:33;21.37;;;12.77;;
15385;SDS011;7791;47.246;9.648;2023-02-28T04:40:00;22.00;;;13.13;;
15385;SDS011;7791;47.246;9.648;2023-02-28T04:42:26;22.33;;;12.47;;
15385;SDS011;7791;47.246;9.648;2023-02-28T04:44:52;22.40;;;11.87;;
15385;SDS011;7791;47.246;9.648;2023-02-28T04:47:17;20.90;;;12.43;;
15385;SDS011;7791;47.246;9.648;2023-02-28T04:49:43;18.60;;;11.63;;
15385;SDS011;7791;47.246;9.648;2023-02-28T04:52:09;22.03;;;12.53;;
15385;SDS011;7791;47.246;9.648;2023-02-28T04:54:35;23.63;;;13.90;;
15385;SDS011;7791;47.246;9.648;2023-02-28T04:59:47;22.23;;;12.53;;
15385;SDS011;7791;47.246;9.648;2023-02-28T05:02:13;22.20;;;12.50;;
15385;SDS011;7791;47.246;9.648;2023-02-28T05:04:39;21.23;;;12.07;;
15385;SDS011;7791;47.246;9.648;2023-02-28T05:07:04;20.23;;;12.23;;
15385;SDS011;7791;47.246;9.648;2023-02-28T05:09:30;22.90;;;12.17;;
15385;SDS011;7791;47.246;9.648;2023-02-28T05:21:05;22.63;;;12.40;;
15385;SDS011;7791;47.246;9.648;2023-02-28T05:23:31;25.70;;;13.90;;
15385;SDS011;7791;47.246;9.648;2023-02-28T05:25:57;38.00;;;18.93;;
15385;SDS011;7791;47.246;9.648;2023-02-28T05:28:23;37.23;;;18.37;;
15385;SDS011;7791;47.246;9.648;2023-02-28T05:30:51;34.63;;;17.37;;
15385;SDS011;7791;47.246;9.648;2023-02-28T05:33:16;30.53;;;16.53;;
15385;SDS011;7791;47.246;9.648;2023-02-28T05:35:44;29.97;;;14.33;;
15385;SDS011;7791;47.246;9.648;2023-02-28T05:38:10;21.67;;;12.67;;
15385;SDS011;7791;47.246;9.648;2023-02-28T05:40:37;18.83;;;11.07;;
15385;SDS011;7791;47.246;9.648;2023-02-28T05:46:07;27.27;;;15.30;;
15385;SDS011;7791;47.246;9.648;2023-02-28T05:48:35;41.67;;;20.93;;
15385;SDS011;7791;47.246;9.648;2023-02-28T05:51:03;47.93;;;21.70;;
15385;SDS011;7791;47.246;9.648;2023-02-28T05:53:30;47.80;;;22.80;;
15385;SDS011;7791;47.246;9.648;2023-02-28T05:55:56;53.80;;;24.27;;
15385;SDS011;7791;47.246;9.648;2023-02-28T06:04:27;40.90;;;19.50;;
15385;SDS011;7791;47.246;9.648;2023-02-28T06:06:54;46.03;;;23.97;;
15385;SDS011;7791;47.246;9.648;2023-02-28T06:09:20;44.43;;;22.93;;
15385;SDS011;7791;47.246;9.648;2023-02-28T06:14:32;47.97;;;22.73;;
15385;SDS011;7791;47.246;9.648;2023-02-28T06:16:59;47.27;;;21.77;;
15385;SDS011;7791;47.246;9.648;2023-02-28T06:19:25;47.23;;;22.97;;
15385;SDS011;7791;47.246;9.648;2023-02-28T06:21:51;43.30;;;22.17;;
15385;SDS011;7791;47.246;9.648;2023-02-28T06:24:19;43.13;;;21.03;;
15385;SDS011;7791;47.246;9.648;2023-02-28T06:29:44;37.83;;;19.03;;
15385;SDS011;7791;47.246;9.648;2023-02-28T06:32:10;47.23;;;22.53;;
15385;SDS011;7791;47.246;9.648;2023-02-28T06:34:36;43.10;;;21.70;;
15385;SDS011;7791;47.246;9.648;2023-02-28T06:37:01;36.67;;;20.00;;
15385;SDS011;7791;47.246;9.648;2023-02-28T06:39:30;41.20;;;20.40;;
15385;SDS011;7791;47.246;9.648;2023-02-28T06:41:56;40.47;;;21.30;;
15385;SDS011;7791;47.246;9.648;2023-02-28T06:44:23;36.27;;;19.10;;
15385;SDS011;7791;47.246;9.648;2023-02-28T06:46:49;34.93;;;18.13;;
15385;SDS011;7791;47.246;9.648;2023-02-28T06:49:15;33.90;;;17.70;;
15385;SDS011;7791;47.246;9.648;2023-02-28T06:51:42;34.67;;;18.63;;
15385;SDS011;7791;47.246;9.648;2023-02-28T06:54:09;36.70;;;18.13;;
15385;SDS011;7791;47.246;9.648;2023-02-28T06:56:36;40.67;;;19.63;;
15385;SDS011;7791;47.246;9.648;2023-02-28T07:02:05;30.40;;;15.53;;
15385;SDS011;7791;47.246;9.648;2023-02-28T07:04:31;30.67;;;16.13;;
15385;SDS011;7791;47.246;9.648;2023-02-28T07:06:56;29.13;;;17.10;;
15385;SDS011;7791;47.246;9.648;2023-02-28T07:09:22;32.73;;;17.90;;
15385;SDS011;7791;47.246;9.648;2023-02-28T07:11:52;38.00;;;21.13;;
15385;SDS011;7791;47.246;9.648;2023-02-28T07:17:02;39.73;;;20.87;;
15385;SDS011;7791;47.246;9.648;2023-02-28T07:19:28;27.07;;;15.97;;
15385;SDS011;7791;47.246;9.648;2023-02-28T07:21:54;22.13;;;14.20;;
15385;SDS011;7791;47.246;9.648;2023-02-28T07:24:20;31.50;;;17.57;;
15385;SDS011;7791;47.246;9.648;2023-02-28T07:26:46;30.53;;;16.77;;
15385;SDS011;7791;47.246;9.648;2023-02-28T07:31:58;26.37;;;13.87;;
15385;SDS011;7791;47.246;9.648;2023-02-28T07:34:24;25.03;;;14.33;;
15385;SDS011;7791;47.246;9.648;2023-02-28T07:36:52;22.73;;;13.50;;
15385;SDS011;7791;47.246;9.648;2023-02-28T07:39:18;27.40;;;18.70;;
15385;SDS011;7791;47.246;9.648;2023-02-28T07:41:44;22.87;;;15.47;;
15385;SDS011;7791;47.246;9.648;2023-02-28T07:47:19;17.67;;;11.77;;
15385;SDS011;7791;47.246;9.648;2023-02-28T07:49:45;20.60;;;11.33;;
15385;SDS011;7791;47.246;9.648;2023-02-28T07:52:11;23.53;;;10.37;;
15385;SDS011;7791;47.246;9.648;2023-02-28T07:54:37;18.87;;;10.83;;
15385;SDS011;7791;47.246;9.648;2023-02-28T07:57:03;17.97;;;9.93;;
15385;SDS011;7791;47.246;9.648;2023-02-28T08:02:23;18.73;;;9.33;;
15385;SDS011;7791;47.246;9.648;2023-02-28T08:04:49;21.33;;;9.60;;
15385;SDS011;7791;47.246;9.648;2023-02-28T08:07:16;14.10;;;9.27;;
15385;SDS011;7791;47.246;9.648;2023-02-28T08:09:43;18.70;;;9.43;;
15385;SDS011;7791;47.246;9.648;2023-02-28T08:12:09;16.20;;;8.90;;
15385;SDS011;7791;47.246;9.648;2023-02-28T08:17:42;14.20;;;8.93;;
15385;SDS011;7791;47.246;9.648;2023-02-28T08:20:08;14.93;;;9.53;;
15385;SDS011;7791;47.246;9.648;2023-02-28T08:22:35;14.80;;;10.40;;
15385;SDS011;7791;47.246;9.648;2023-02-28T08:25:01;20.00;;;10.47;;
15385;SDS011;7791;47.246;9.648;2023-02-28T08:27:28;14.83;;;9.47;;
15385;SDS011;7791;47.246;9.648;2023-02-28T08:29:56;14.43;;;10.23;;
15385;SDS011;7791;47.246;9.648;2023-02-28T08:32:25;14.43;;;10.40;;
15385;SDS011;7791;47.246;9.648;2023-02-28T08:34:54;15.80;;;11.13;;
15385;SDS011;7791;47.246;9.648;2023-02-28T08:37:20;16.57;;;10.10;;
15385;SDS011;7791;47.246;9.648;2023-02-28T08:39:47;15.40;;;10.07;;
15385;SDS011;7791;47.246;9.648;2023-02-28T08:42:14;15.60;;;10.43;;
15385;SDS011;7791;47.246;9.648;2023-02-28T08:44:44;15.43;;;10.47;;
15385;SDS011;7791;47.246;9.648;2023-02-28T08:47:10;17.80;;;10.90;;
15385;SDS011;7791;47.246;9.648;2023-02-28T08:49:38;15.10;;;10.60;;
15385;SDS011;7791;47.246;9.648;2023-02-28T08:52:10;15.97;;;10.53;;
15385;SDS011;7791;47.246;9.648;2023-02-28T08:54:38;20.33;;;10.70;;
15385;SDS011;7791;47.246;9.648;2023-02-28T08:57:04;18.73;;;12.03;;
15385;SDS011;7791;47.246;9.648;2023-02-28T09:02:35;18.23;;;10.57;;
15385;SDS011;7791;47.246;9.648;2023-02-28T09:05:05;19.33;;;10.30;;
15385;SDS011;7791;47.246;9.648;2023-02-28T09:07:33;16.30;;;10.87;;
15385;SDS011;7791;47.246;9.648;2023-02-28T09:10:00;19.47;;;11.43;;
15385;SDS011;7791;47.246;9.648;2023-02-28T09:12:26;16.77;;;10.73;;
15385;SDS011;7791;47.246;9.648;2023-02-28T09:14:58;19.07;;;11.27;;
15385;SDS011;7791;47.246;9.648;2023-02-28T09:17:27;19.53;;;11.23;;
15385;SDS011;7791;47.246;9.648;2023-02-28T09:19:56;16.23;;;10.60;;
15385;SDS011;7791;47.246;9.648;2023-02-28T09:22:25;16.27;;;10.90;;
15385;SDS011;7791;47.246;9.648;2023-02-28T09:30:43;13.50;;;9.93;;
15385;SDS011;7791;47.246;9.648;2023-02-28T09:33:10;15.70;;;10.30;;
15385;SDS011;7791;47.246;9.648;2023-02-28T09:35:36;17.53;;;10.20;;
15385;SDS011;7791;47.246;9.648;2023-02-28T09:38:02;18.03;;;10.33;;
15385;SDS011;7791;47.246;9.648;2023-02-28T09:40:29;18.63;;;10.80;;
15385;SDS011;7791;47.246;9.648;2023-02-28T09:42:57;15.20;;;10.13;;
15385;SDS011;7791;47.246;9.648;2023-02-28T09:45:26;15.73;;;10.43;;
15385;SDS011;7791;47.246;9.648;2023-02-28T09:47:58;17.43;;;11.00;;
15385;SDS011;7791;47.246;9.648;2023-02-28T09:50:29;18.53;;;11.90;;
15385;SDS011;7791;47.246;9.648;2023-02-28T09:58:58;15.37;;;10.87;;
15385;SDS011;7791;47.246;9.648;2023-02-28T10:09:39;15.83;;;11.00;;
15385;SDS011;7791;47.246;9.648;2023-02-28T10:12:05;14.00;;;9.90;;
15385;SDS011;7791;47.246;9.648;2023-02-28T10:17:38;13.40;;;10.00;;
15385;SDS011;7791;47.246;9.648;2023-02-28T10:20:07;12.13;;;9.90;;
15385;SDS011;7791;47.246;9.648;2023-02-28T10:22:38;16.60;;;11.60;;
15385;SDS011;7791;47.246;9.648;2023-02-28T10:25:17;16.30;;;10.87;;
15385;SDS011;7791;47.246;9.648;2023-02-28T10:27:45;18.87;;;11.17;;
15385;SDS011;7791;47.246;9.648;2023-02-28T10:33:19;17.53;;;11.33;;
15385;SDS011;7791;47.246;9.648;2023-02-28T10:35:47;16.90;;;11.47;;
15385;SDS011;7791;47.246;9.648;2023-02-28T10:38:17;14.63;;;11.13;;
15385;SDS011;7791;47.246;9.648;2023-02-28T10:40:46;17.87;;;11.90;;
15385;SDS011;7791;47.246;9.648;2023-02-28T10:43:19;15.33;;;11.37;;
15385;SDS011;7791;47.246;9.648;2023-02-28T10:51:46;15.20;;;10.23;;
15385;SDS011;7791;47.246;9.648;2023-02-28T10:54:16;14.73;;;10.40;;
15385;SDS011;7791;47.246;9.648;2023-02-28T10:56:45;19.33;;;13.93;;
15385;SDS011;7791;47.246;9.648;2023-02-28T10:59:30;18.00;;;12.00;;
15385;SDS011;7791;47.246;9.648;2023-02-28T11:01:56;17.27;;;11.70;;
15385;SDS011;7791;47.246;9.648;2023-02-28T11:04:31;16.37;;;11.23;;
15385;SDS011;7791;47.246;9.648;2023-02-28T11:06:59;15.23;;;10.77;;
15385;SDS011;7791;47.246;9.648;2023-02-28T11:09:27;16.77;;;11.57;;
15385;SDS011;7791;47.246;9.648;2023-02-28T11:11:58;16.00;;;11.53;;
15385;SDS011;7791;47.246;9.648;2023-02-28T11:14:25;16.70;;;11.80;;
15385;SDS011;7791;47.246;9.648;2023-02-28T11:16:53;16.20;;;11.43;;
15385;SDS011;7791;47.246;9.648;2023-02-28T11:19:20;15.37;;;11.27;;
15385;SDS011;7791;47.246;9.648;2023-02-28T11:21:52;17.87;;;11.70;;
15385;SDS011;7791;47.246;9.648;2023-02-28T11:24:22;21.20;;;11.53;;
15385;SDS011;7791;47.246;9.648;2023-02-28T11:26:51;17.03;;;11.80;;
15385;SDS011;7791;47.246;9.648;2023-02-28T11:29:19;15.40;;;11.70;;
15385;SDS011;7791;47.246;9.648;2023-02-28T11:34:41;15.03;;;11.30;;
15385;SDS011;7791;47.246;9.648;2023-02-28T11:37:10;16.40;;;11.40;;
15385;SDS011;7791;47.246;9.648;2023-02-28T11:39:38;15.63;;;11.10;;
15385;SDS011;7791;47.246;9.648;2023-02-28T11:42:10;14.47;;;10.77;;
15385;SDS011;7791;47.246;9.648;2023-02-28T11:44:53;17.27;;;11.30;;
15385;SDS011;7791;47.246;9.648;2023-02-28T11:47:32;16.03;;;11.37;;
15385;SDS011;7791;47.246;9.648;2023-02-28T11:50:12;19.63;;;11.67;;
15385;SDS011;7791;47.246;9.648;2023-02-28T11:52:50;16.40;;;11.97;;
15385;SDS011;7791;47.246;9.648;2023-02-28T11:55:19;16.07;;;11.63;;
15385;SDS011;7791;47.246;9.648;2023-02-28T11:57:57;14.77;;;11.17;;
15385;SDS011;7791;47.246;9.648;2023-02-28T12:00:43;19.27;;;11.77;;
15385;SDS011;7791;47.246;9.648;2023-02-28T12:03:22;15.67;;;11.07;;
15385;SDS011;7791;47.246;9.648;2023-02-28T12:05:57;18.33;;;12.03;;
15385;SDS011;7791;47.246;9.648;2023-02-28T12:08:40;17.23;;;11.80;;
15385;SDS011;7791;47.246;9.648;2023-02-28T12:11:13;16.50;;;11.70;;
15385;SDS011;7791;47.246;9.648;2023-02-28T12:13:50;15.63;;;11.37;;
15385;SDS011;7791;47.246;9.648;2023-02-28T12:16:49;18.03;;;11.47;;
15385;SDS011;7791;47.246;9.648;2023-02-28T12:19:25;16.83;;;12.43;;
15385;SDS011;7791;47.246;9.648;2023-02-28T12:22:05;15.20;;;11.80;;
15385;SDS011;7791;47.246;9.648;2023-02-28T12:28:04;17.00;;;11.57;;
15385;SDS011;7791;47.246;9.648;2023-02-28T12:30:35;18.53;;;12.10;;
15385;SDS011;7791;47.246;9.648;2023-02-28T12:33:16;15.23;;;11.37;;
15385;SDS011;7791;47.246;9.648;2023-02-28T12:35:47;18.63;;;12.13;;
15385;SDS011;7791;47.246;9.648;2023-02-28T12:38:17;15.83;;;11.57;;
15385;SDS011;7791;47.246;9.648;2023-02-28T12:40:49;15.83;;;11.70;;
15385;SDS011;7791;47.246;9.648;2023-02-28T12:43:18;16.23;;;11.60;;
15385;SDS011;7791;47.246;9.648;2023-02-28T12:45:48;18.37;;;12.10;;
15385;SDS011;7791;47.246;9.648;2023-02-28T12:48:20;16.40;;;11.50;;
15385;SDS011;7791;47.246;9.648;2023-02-28T12:50:50;18.90;;;12.00;;
15385;SDS011;7791;47.246;9.648;2023-02-28T12:53:18;15.70;;;11.53;;
15385;SDS011;7791;47.246;9.648;2023-02-28T12:55:54;18.53;;;12.23;;
15385;SDS011;7791;47.246;9.648;2023-02-28T12:58:28;17.50;;;11.40;;
15385;SDS011;7791;47.246;9.648;2023-02-28T13:01:04;18.53;;;12.30;;
15385;SDS011;7791;47.246;9.648;2023-02-28T13:03:52;15.03;;;11.40;;
15385;SDS011;7791;47.246;9.648;2023-02-28T13:06:47;15.27;;;11.53;;
15385;SDS011;7791;47.246;9.648;2023-02-28T13:09:22;17.67;;;12.17;;
15385;SDS011;7791;47.246;9.648;2023-02-28T13:11:49;16.03;;;11.20;;
15385;SDS011;7791;47.246;9.648;2023-02-28T13:14:19;14.97;;;10.83;;
15385;SDS011;7791;47.246;9.648;2023-02-28T13:16:50;17.60;;;12.20;;
15385;SDS011;7791;47.246;9.648;2023-02-28T13:19:22;14.73;;;11.17;;
15385;SDS011;7791;47.246;9.648;2023-02-28T13:21:50;16.47;;;11.50;;
15385;SDS011;7791;47.246;9.648;2023-02-28T13:30:00;15.53;;;10.77;;
15385;SDS011;7791;47.246;9.648;2023-02-28T13:32:46;16.37;;;11.73;;
15385;SDS011;7791;47.246;9.648;2023-02-28T13:36:09;18.27;;;11.30;;
15385;SDS011;7791;47.246;9.648;2023-02-28T13:38:47;16.53;;;11.37;;
15385;SDS011;7791;47.246;9.648;2023-02-28T13:44:11;15.60;;;11.23;;
15385;SDS011;7791;47.246;9.648;2023-02-28T13:49:41;19.30;;;11.70;;
15385;SDS011;7791;47.246;9.648;2023-02-28T13:52:11;18.97;;;12.37;;
15385;SDS011;7791;47.246;9.648;2023-02-28T13:54:43;15.23;;;10.90;;
15385;SDS011;7791;47.246;9.648;2023-02-28T13:57:20;16.37;;;11.33;;
15385;SDS011;7791;47.246;9.648;2023-02-28T13:59:59;15.63;;;11.57;;
15385;SDS011;7791;47.246;9.648;2023-02-28T14:03:01;17.67;;;11.60;;
15385;SDS011;7791;47.246;9.648;2023-02-28T14:05:39;16.40;;;11.17;;
15385;SDS011;7791;47.246;9.648;2023-02-28T14:08:08;17.87;;;12.07;;
15385;SDS011;7791;47.246;9.648;2023-02-28T14:10:41;16.37;;;11.93;;
15385;SDS011;7791;47.246;9.648;2023-02-28T14:13:12;19.53;;;12.10;;
15385;SDS011;7791;47.246;9.648;2023-02-28T14:15:57;16.27;;;11.33;;
15385;SDS011;7791;47.246;9.648;2023-02-28T14:18:25;17.03;;;12.20;;
15385;SDS011;7791;47.246;9.648;2023-02-28T14:20:58;19.23;;;11.43;;
15385;SDS011;7791;47.246;9.648;2023-02-28T14:23:41;17.17;;;11.77;;
15385;SDS011;7791;47.246;9.648;2023-02-28T14:26:30;18.13;;;11.03;;
15385;SDS011;7791;47.246;9.648;2023-02-28T14:31:57;18.13;;;12.17;;
15385;SDS011;7791;47.246;9.648;2023-02-28T14:34:34;16.93;;;12.13;;
15385;SDS011;7791;47.246;9.648;2023-02-28T14:37:04;16.10;;;12.17;;
15385;SDS011;7791;47.246;9.648;2023-02-28T14:39:32;19.20;;;12.53;;
15385;SDS011;7791;47.246;9.648;2023-02-28T14:41:57;18.63;;;12.50;;
15385;SDS011;7791;47.246;9.648;2023-02-28T14:44:24;19.13;;;12.93;;
15385;SDS011;7791;47.246;9.648;2023-02-28T14:46:52;21.40;;;12.90;;
15385;SDS011;7791;47.246;9.648;2023-02-28T14:52:20;18.43;;;12.87;;
15385;SDS011;7791;47.246;9.648;2023-02-28T14:54:51;19.13;;;13.00;;
15385;SDS011;7791;47.246;9.648;2023-02-28T14:57:22;19.53;;;13.27;;
15385;SDS011;7791;47.246;9.648;2023-02-28T14:59:56;21.77;;;13.67;;
15385;SDS011;7791;47.246;9.648;2023-02-28T15:02:24;18.40;;;12.87;;
15385;SDS011;7791;47.246;9.648;2023-02-28T15:07:47;18.20;;;13.00;;
15385;SDS011;7791;47.246;9.648;2023-02-28T15:10:20;19.40;;;12.70;;
15385;SDS011;7791;47.246;9.648;2023-02-28T15:12:50;18.87;;;13.53;;
15385;SDS011;7791;47.246;9.648;2023-02-28T15:15:18;18.73;;;13.10;;
15385;SDS011;7791;47.246;9.648;2023-02-28T15:17:46;17.63;;;13.07;;
15385;SDS011;7791;47.246;9.648;2023-02-28T15:20:15;20.40;;;13.70;;
15385;SDS011;7791;47.246;9.648;2023-02-28T15:22:41;21.67;;;14.20;;
15385;SDS011;7791;47.246;9.648;2023-02-28T15:25:09;19.17;;;13.27;;
15385;SDS011;7791;47.246;9.648;2023-02-28T15:27:40;20.00;;;13.67;;
15385;SDS011;7791;47.246;9.648;2023-02-28T15:30:13;19.97;;;13.67;;
15385;SDS011;7791;47.246;9.648;2023-02-28T15:32:41;21.03;;;13.87;;
15385;SDS011;7791;47.246;9.648;2023-02-28T15:37:55;22.37;;;13.13;;
15385;SDS011;7791;47.246;9.648;2023-02-28T15:40:23;20.67;;;13.57;;
15385;SDS011;7791;47.246;9.648;2023-02-28T15:42:59;22.60;;;14.10;;
15385;SDS011;7791;47.246;9.648;2023-02-28T15:45:32;22.03;;;13.40;;
15385;SDS011;7791;47.246;9.648;2023-02-28T15:48:01;21.17;;;14.03;;
15385;SDS011;7791;47.246;9.648;2023-02-28T15:53:15;21.13;;;14.27;;
15385;SDS011;7791;47.246;9.648;2023-02-28T15:55:43;21.10;;;14.00;;
15385;SDS011;7791;47.246;9.648;2023-02-28T15:58:11;23.43;;;14.33;;
15385;SDS011;7791;47.246;9.648;2023-02-28T16:00:38;20.93;;;13.90;;
15385;SDS011;7791;47.246;9.648;2023-02-28T16:03:23;21.40;;;14.10;;
15385;SDS011;7791;47.246;9.648;2023-02-28T16:08:48;22.00;;;13.50;;
15385;SDS011;7791;47.246;9.648;2023-02-28T16:11:14;22.50;;;14.33;;
15385;SDS011;7791;47.246;9.648;2023-02-28T16:13:41;24.50;;;15.10;;
15385;SDS011;7791;47.246;9.648;2023-02-28T16:16:07;23.30;;;13.57;;
15385;SDS011;7791;47.246;9.648;2023-02-28T16:19:03;23.13;;;14.03;;
15385;SDS011;7791;47.246;9.648;2023-02-28T16:21:32;23.47;;;14.47;;
15385;SDS011;7791;47.246;9.648;2023-02-28T16:26:58;22.07;;;14.67;;
15385;SDS011;7791;47.246;9.648;2023-02-28T16:29:29;27.13;;;15.57;;
15385;SDS011;7791;47.246;9.648;2023-02-28T16:31:58;23.07;;;14.40;;
15385;SDS011;7791;47.246;9.648;2023-02-28T16:34:38;26.00;;;15.20;;
15385;SDS011;7791;47.246;9.648;2023-02-28T16:37:10;21.30;;;14.00;;
15385;SDS011;7791;47.246;9.648;2023-02-28T16:39:43;22.37;;;13.90;;
15385;SDS011;7791;47.246;9.648;2023-02-28T16:42:14;24.13;;;14.63;;
15385;SDS011;7791;47.246;9.648;2023-02-28T16:44:53;22.93;;;14.53;;
15385;SDS011;7791;47.246;9.648;2023-02-28T16:47:21;24.23;;;15.20;;
15385;SDS011;7791;47.246;9.648;2023-02-28T16:49:47;25.43;;;15.40;;
15385;SDS011;7791;47.246;9.648;2023-02-28T16:52:16;29.33;;;15.93;;
15385;SDS011;7791;47.246;9.648;2023-02-28T16:54:42;27.53;;;15.47;;
15385;SDS011;7791;47.246;9.648;2023-02-28T16:57:14;24.23;;;15.70;;
15385;SDS011;7791;47.246;9.648;2023-02-28T16:59:45;24.83;;;14.70;;
15385;SDS011;7791;47.246;9.648;2023-02-28T17:02:12;25.60;;;15.43;;
15385;SDS011;7791;47.246;9.648;2023-02-28T17:04:40;28.03;;;16.00;;